Time;durP1;ratioP1;P1;durP2;ratioP2;P2;SDS_P1;SDS_P2;PMS_P1;PMS_P2;Temp;Humidity;BMP_temperature;BMP_pressure;BME280_temperature;BME280_humidity;BME280_pressure;Samples;Min_cycle;Max_cycle;Signal;HPM_P1;HPM_P2
2023/08/04 00:01:11;;;;;;;11.02;5.38;;;;;;;;;;5100981;28;20034;-66
2023/08/04 00:03:36;;;;;;;11.43;5.55;;;;;;;;;;5103905;28;20052;-66
2023/08/04 00:06:06;;;;;;;10.13;5.30;;;;;;;;;;5100225;28;20027;-66
2023/08/04 00:08:31;;;;;;;10.23;5.72;;;;;;;;;;5087266;28;20027;-66
2023/08/04 00:10:57;;;;;;;9.27;5.72;;;;;;;;;;5101823;28;20031;-66
2023/08/04 00:13:22;;;;;;;12.63;5.53;;;;;;;;;;5101096;28;20028;-66
2023/08/04 00:15:47;;;;;;;10.45;6.20;;;;;;;;;;5092715;28;20270;-65
2023/08/04 00:18:12;;;;;;;9.10;5.38;;;;;;;;;;5099496;28;20114;-66
2023/08/04 00:20:38;;;;;;;8.00;5.13;;;;;;;;;;5108799;28;20366;-66
2023/08/04 00:23:03;;;;;;;7.87;5.47;;;;;;;;;;5092285;28;20363;-66
2023/08/04 00:25:28;;;;;;;11.10;6.57;;;;;;;;;;5094048;28;20706;-66
2023/08/04 00:27:53;;;;;;;12.55;6.00;;;;;;;;;;5093275;28;20274;-66
2023/08/04 00:30:19;;;;;;;10.13;6.37;;;;;;;;;;5094046;28;20039;-66
2023/08/04 00:32:44;;;;;;;11.10;6.07;;;;;;;;;;5093696;28;20273;-66
2023/08/04 00:35:09;;;;;;;15.13;5.70;;;;;;;;;;5107087;28;20536;-66
2023/08/04 00:37:34;;;;;;;10.30;6.32;;;;;;;;;;5105178;28;20024;-66
2023/08/04 00:40:00;;;;;;;10.35;6.28;;;;;;;;;;5099770;28;20020;-66
2023/08/04 00:42:25;;;;;;;8.95;5.28;;;;;;;;;;5098045;28;20165;-66
2023/08/04 00:44:50;;;;;;;7.20;5.20;;;;;;;;;;5103799;28;20036;-66
2023/08/04 00:47:15;;;;;;;11.00;5.57;;;;;;;;;;5110684;28;20481;-66
2023/08/04 00:49:41;;;;;;;11.35;6.15;;;;;;;;;;5111794;28;20023;-66
2023/08/04 00:52:08;;;;;;;10.80;6.60;;;;;;;;;;5111788;28;20024;-66
2023/08/04 00:54:33;;;;;;;9.98;6.25;;;;;;;;;;5112434;28;20111;-66
2023/08/04 00:56:59;;;;;;;18.13;6.65;;;;;;;;;;5111659;28;20139;-66
2023/08/04 00:59:24;;;;;;;10.02;6.20;;;;;;;;;;5104088;28;20032;-66
2023/08/04 01:01:49;;;;;;;9.57;6.00;;;;;;;;;;5109394;28;20433;-66
2023/08/04 01:04:15;;;;;;;10.45;6.10;;;;;;;;;;5112164;28;20069;-66
2023/08/04 01:06:59;;;;;;;12.60;6.80;;;;;;;;;;5092565;28;20126;-66
2023/08/04 01:09:33;;;;;;;13.55;6.80;;;;;;;;;;5105726;28;20425;-66
2023/08/04 01:12:19;;;;;;;8.68;5.78;;;;;;;;;;5100440;28;20028;-66
2023/08/04 01:14:46;;;;;;;12.20;6.85;;;;;;;;;;5083304;28;20039;-66
2023/08/04 01:17:28;;;;;;;13.07;6.88;;;;;;;;;;5097949;28;20034;-66
2023/08/04 01:19:54;;;;;;;9.70;6.22;;;;;;;;;;5110175;28;20024;-66
2023/08/04 01:22:20;;;;;;;10.68;6.68;;;;;;;;;;5112078;28;20028;-66
2023/08/04 01:24:45;;;;;;;15.63;7.28;;;;;;;;;;5110661;28;20020;-66
2023/08/04 01:27:13;;;;;;;14.50;7.50;;;;;;;;;;5093459;28;20451;-66
2023/08/04 01:29:39;;;;;;;10.50;6.75;;;;;;;;;;5091799;28;20024;-66
2023/08/04 01:32:04;;;;;;;11.68;7.50;;;;;;;;;;5095521;28;20494;-66
2023/08/04 01:34:30;;;;;;;9.50;7.38;;;;;;;;;;5102794;28;20486;-66
2023/08/04 01:36:55;;;;;;;13.48;6.88;;;;;;;;;;5101676;28;20116;-66
2023/08/04 01:39:20;;;;;;;11.48;7.13;;;;;;;;;;5110222;28;20374;-66
2023/08/04 01:41:46;;;;;;;15.07;6.97;;;;;;;;;;5085734;28;20146;-67
2023/08/04 01:44:11;;;;;;;8.80;6.50;;;;;;;;;;5111426;28;20022;-66
2023/08/04 01:46:36;;;;;;;10.67;7.33;;;;;;;;;;5097757;28;20028;-66
2023/08/04 01:49:01;;;;;;;10.33;6.90;;;;;;;;;;5111625;28;20744;-66
2023/08/04 01:51:27;;;;;;;14.32;7.15;;;;;;;;;;5097640;28;20624;-66
2023/08/04 01:53:52;;;;;;;15.40;7.17;;;;;;;;;;5111661;28;20460;-67
2023/08/04 01:56:17;;;;;;;11.60;7.93;;;;;;;;;;5110105;28;20675;-67
2023/08/04 01:58:42;;;;;;;16.73;8.00;;;;;;;;;;5111189;28;20705;-67
2023/08/04 02:01:07;;;;;;;14.03;7.43;;;;;;;;;;5111268;28;20358;-67
2023/08/04 02:03:34;;;;;;;13.83;8.23;;;;;;;;;;5061558;28;20266;-66
2023/08/04 02:06:00;;;;;;;15.75;8.07;;;;;;;;;;5059379;28;20273;-67
2023/08/04 02:08:25;;;;;;;11.73;8.80;;;;;;;;;;5061950;28;20038;-66
2023/08/04 02:10:50;;;;;;;17.98;8.93;;;;;;;;;;5057765;28;20021;-66
2023/08/04 02:13:15;;;;;;;14.88;8.43;;;;;;;;;;5091433;28;20467;-67
2023/08/04 02:15:41;;;;;;;15.80;9.63;;;;;;;;;;5080799;28;20082;-66
2023/08/04 02:18:06;;;;;;;13.10;9.52;;;;;;;;;;5075287;28;20374;-66
2023/08/04 02:20:31;;;;;;;13.10;9.32;;;;;;;;;;5061665;28;20035;-66
2023/08/04 02:22:56;;;;;;;22.05;8.77;;;;;;;;;;5046707;28;20900;-66
2023/08/04 02:25:22;;;;;;;12.97;8.87;;;;;;;;;;5046344;28;20028;-67
2023/08/04 02:27:47;;;;;;;16.43;9.13;;;;;;;;;;5045890;28;20276;-66
2023/08/04 02:30:12;;;;;;;17.45;10.18;;;;;;;;;;5047374;28;20274;-66
2023/08/04 02:32:37;;;;;;;14.45;10.13;;;;;;;;;;5056769;28;20021;-66
2023/08/04 02:35:03;;;;;;;15.67;9.73;;;;;;;;;;5104234;28;20055;-66
2023/08/04 02:37:28;;;;;;;15.77;10.05;;;;;;;;;;5096848;28;20290;-66
2023/08/04 02:39:53;;;;;;;15.43;10.70;;;;;;;;;;5110844;28;20026;-66
2023/08/04 02:42:18;;;;;;;18.23;10.88;;;;;;;;;;5108427;28;20028;-66
2023/08/04 02:44:44;;;;;;;16.10;10.27;;;;;;;;;;5092040;28;20032;-66
2023/08/04 02:47:09;;;;;;;19.13;10.37;;;;;;;;;;5092220;28;20270;-66
2023/08/04 02:49:34;;;;;;;15.63;11.65;;;;;;;;;;5099772;28;20270;-66
2023/08/04 02:51:59;;;;;;;15.10;10.82;;;;;;;;;;5095478;28;20028;-66
2023/08/04 02:54:25;;;;;;;15.63;10.53;;;;;;;;;;5096983;28;20031;-66
2023/08/04 02:56:50;;;;;;;13.70;10.30;;;;;;;;;;5061816;28;20293;-66
2023/08/04 02:59:15;;;;;;;16.42;10.88;;;;;;;;;;5047275;28;20885;-67
2023/08/04 03:01:40;;;;;;;16.30;11.23;;;;;;;;;;5080838;28;20032;-67
2023/08/04 03:04:06;;;;;;;15.65;11.45;;;;;;;;;;5091161;28;20357;-67
2023/08/04 03:06:31;;;;;;;21.52;11.68;;;;;;;;;;5099756;28;20469;-67
2023/08/04 03:08:56;;;;;;;17.65;9.77;;;;;;;;;;5098570;28;20020;-67
2023/08/04 03:11:21;;;;;;;20.23;11.77;;;;;;;;;;5114097;28;20019;-67
2023/08/04 03:13:47;;;;;;;14.98;11.35;;;;;;;;;;5113282;28;20308;-67
2023/08/04 03:16:12;;;;;;;15.13;10.73;;;;;;;;;;5105361;28;20020;-67
2023/08/04 03:18:37;;;;;;;14.63;11.70;;;;;;;;;;5093926;28;20357;-67
2023/08/04 03:21:05;;;;;;;16.53;11.13;;;;;;;;;;5093487;28;20302;-67
2023/08/04 03:23:31;;;;;;;15.98;11.65;;;;;;;;;;5109687;28;20281;-67
2023/08/04 03:25:56;;;;;;;17.13;11.68;;;;;;;;;;5104611;28;20074;-66
2023/08/04 03:28:21;;;;;;;16.83;11.93;;;;;;;;;;5095396;28;20463;-66
2023/08/04 03:30:46;;;;;;;18.53;12.60;;;;;;;;;;5111158;28;20639;-67
2023/08/04 03:33:12;;;;;;;14.63;10.73;;;;;;;;;;5111758;28;20322;-67
2023/08/04 03:35:37;;;;;;;20.40;12.67;;;;;;;;;;5093692;28;20020;-67
2023/08/04 03:38:02;;;;;;;18.50;10.88;;;;;;;;;;5101119;28;20771;-67
2023/08/04 03:40:28;;;;;;;13.80;11.82;;;;;;;;;;5113311;28;20024;-67
2023/08/04 03:42:53;;;;;;;16.80;11.57;;;;;;;;;;5069785;28;20016;-67
2023/08/04 03:45:18;;;;;;;17.60;11.07;;;;;;;;;;5090744;28;20089;-67
2023/08/04 03:47:43;;;;;;;14.48;10.48;;;;;;;;;;5093924;28;20440;-67
2023/08/04 03:50:09;;;;;;;18.47;10.73;;;;;;;;;;5093353;28;20089;-67
2023/08/04 03:52:34;;;;;;;17.63;11.60;;;;;;;;;;5106904;28;20270;-67
2023/08/04 03:54:59;;;;;;;19.75;12.27;;;;;;;;;;5065788;28;20126;-66
2023/08/04 03:57:25;;;;;;;14.27;11.32;;;;;;;;;;5049958;28;20039;-67
2023/08/04 03:59:51;;;;;;;21.67;11.52;;;;;;;;;;5058263;28;20027;-66
2023/08/04 04:02:16;;;;;;;17.27;11.40;;;;;;;;;;5049182;28;20104;-66
2023/08/04 04:04:41;;;;;;;16.00;11.23;;;;;;;;;;5048297;28;20030;-66
2023/08/04 04:07:07;;;;;;;15.40;11.53;;;;;;;;;;5046797;28;20036;-66
2023/08/04 04:09:32;;;;;;;14.15;10.30;;;;;;;;;;5053836;28;20277;-66
2023/08/04 04:11:57;;;;;;;16.15;11.80;;;;;;;;;;5061572;28;20019;-66
2023/08/04 04:14:23;;;;;;;15.43;11.30;;;;;;;;;;5109371;28;20031;-65
2023/08/04 04:16:48;;;;;;;16.38;11.05;;;;;;;;;;5092832;28;20470;-66
2023/08/04 04:19:13;;;;;;;21.97;11.90;;;;;;;;;;5092723;28;20043;-66
2023/08/04 04:21:38;;;;;;;16.80;11.65;;;;;;;;;;5109396;28;20276;-66
2023/08/04 04:24:04;;;;;;;14.77;10.77;;;;;;;;;;5111356;28;20024;-66
2023/08/04 04:26:29;;;;;;;15.93;11.57;;;;;;;;;;5111220;28;20356;-66
2023/08/04 04:28:54;;;;;;;15.70;10.87;;;;;;;;;;5092405;28;20484;-66
2023/08/04 04:31:19;;;;;;;14.75;11.95;;;;;;;;;;5093205;28;20289;-66
2023/08/04 04:33:44;;;;;;;18.40;11.10;;;;;;;;;;5108559;28;20055;-66
2023/08/04 04:36:10;;;;;;;16.83;11.53;;;;;;;;;;5097469;28;20020;-66
2023/08/04 04:38:36;;;;;;;18.80;11.50;;;;;;;;;;5086904;28;20763;-66
2023/08/04 04:41:02;;;;;;;16.60;11.52;;;;;;;;;;5062568;28;20273;-66
2023/08/04 04:43:28;;;;;;;19.30;10.75;;;;;;;;;;5061045;28;20144;-66
2023/08/04 04:45:54;;;;;;;17.75;11.07;;;;;;;;;;5055861;28;20858;-66
2023/08/04 04:48:19;;;;;;;15.95;11.73;;;;;;;;;;5056286;28;20051;-66
2023/08/04 04:50:45;;;;;;;17.50;10.30;;;;;;;;;;5056048;28;20874;-66
2023/08/04 04:53:10;;;;;;;13.75;10.90;;;;;;;;;;5068777;28;20115;-66
2023/08/04 04:55:35;;;;;;;19.23;10.90;;;;;;;;;;5096240;28;20193;-66
2023/08/04 04:58:01;;;;;;;16.40;11.15;;;;;;;;;;5096540;28;20028;-66
2023/08/04 05:00:26;;;;;;;15.23;10.70;;;;;;;;;;5100735;28;20035;-67
2023/08/04 05:02:51;;;;;;;17.13;10.73;;;;;;;;;;5102666;28;20015;-67
2023/08/04 05:05:17;;;;;;;13.67;9.90;;;;;;;;;;5101677;28;20020;-66
2023/08/04 05:07:42;;;;;;;15.75;11.50;;;;;;;;;;5062718;28;20282;-66
2023/08/04 05:10:08;;;;;;;15.85;10.95;;;;;;;;;;5065199;28;20142;-67
2023/08/04 05:12:33;;;;;;;18.45;11.32;;;;;;;;;;5061933;28;20062;-67
2023/08/04 05:14:58;;;;;;;13.32;9.98;;;;;;;;;;5065209;28;20016;-67
2023/08/04 05:17:24;;;;;;;15.80;9.73;;;;;;;;;;5083141;28;20394;-67
2023/08/04 05:19:49;;;;;;;15.35;10.70;;;;;;;;;;5093893;28;20039;-66
2023/08/04 05:22:14;;;;;;;16.38;11.52;;;;;;;;;;5101647;28;20051;-67
2023/08/04 05:24:39;;;;;;;17.00;10.05;;;;;;;;;;5103608;28;20485;-67
2023/08/04 05:27:05;;;;;;;13.75;10.20;;;;;;;;;;5095980;28;20020;-67
2023/08/04 05:29:30;;;;;;;21.02;11.05;;;;;;;;;;5096692;28;20449;-67
2023/08/04 05:31:56;;;;;;;16.88;10.77;;;;;;;;;;5103193;28;20385;-67
2023/08/04 05:34:21;;;;;;;13.17;10.03;;;;;;;;;;5093564;28;20089;-67
2023/08/04 05:36:46;;;;;;;14.23;10.27;;;;;;;;;;5096428;28;20350;-67
2023/08/04 05:39:11;;;;;;;15.95;10.80;;;;;;;;;;5064319;28;20036;-66
2023/08/04 05:41:37;;;;;;;17.58;11.07;;;;;;;;;;5093301;28;20024;-66
2023/08/04 05:44:02;;;;;;;11.43;9.95;;;;;;;;;;5083896;28;20046;-66
2023/08/04 05:46:28;;;;;;;13.88;9.65;;;;;;;;;;5099661;28;20008;-66
2023/08/04 05:48:53;;;;;;;13.82;10.57;;;;;;;;;;5101566;28;20389;-66
2023/08/04 05:51:19;;;;;;;14.40;10.27;;;;;;;;;;5097604;28;20106;-66
2023/08/04 05:53:44;;;;;;;18.17;11.27;;;;;;;;;;5100883;28;20028;-66
2023/08/04 05:56:09;;;;;;;16.30;10.67;;;;;;;;;;5096339;28;20270;-66
2023/08/04 05:58:35;;;;;;;15.57;10.50;;;;;;;;;;5106130;28;20340;-66
2023/08/04 06:01:00;;;;;;;18.08;11.35;;;;;;;;;;5103803;28;20020;-66
2023/08/04 06:03:25;;;;;;;16.25;10.85;;;;;;;;;;5101766;28;20034;-66
2023/08/04 06:05:51;;;;;;;14.00;10.65;;;;;;;;;;5097327;28;20043;-67
2023/08/04 06:08:16;;;;;;;16.10;10.38;;;;;;;;;;5103206;28;20529;-66
2023/08/04 06:10:41;;;;;;;15.43;10.20;;;;;;;;;;5111191;28;20030;-66
2023/08/04 06:13:06;;;;;;;16.98;10.75;;;;;;;;;;5109811;28;20431;-66
2023/08/04 06:15:32;;;;;;;16.88;10.65;;;;;;;;;;5107441;28;20099;-66
2023/08/04 06:17:57;;;;;;;17.17;10.47;;;;;;;;;;5110826;28;20042;-66
2023/08/04 06:20:22;;;;;;;12.30;9.57;;;;;;;;;;5107152;28;20353;-66
2023/08/04 06:22:48;;;;;;;15.02;9.40;;;;;;;;;;5100384;28;20281;-66
2023/08/04 06:25:14;;;;;;;12.63;8.73;;;;;;;;;;5097355;28;20042;-66
2023/08/04 06:27:40;;;;;;;14.88;10.60;;;;;;;;;;5101396;28;20328;-66
2023/08/04 06:30:05;;;;;;;15.32;9.20;;;;;;;;;;5091634;28;20016;-67
2023/08/04 06:32:31;;;;;;;14.52;9.20;;;;;;;;;;5097427;28;20466;-66
2023/08/04 06:34:56;;;;;;;12.80;8.23;;;;;;;;;;5067318;28;20031;-66
2023/08/04 06:37:21;;;;;;;13.20;9.05;;;;;;;;;;5089311;28;20039;-66
2023/08/04 06:39:46;;;;;;;17.42;9.30;;;;;;;;;;5094448;28;20121;-66
2023/08/04 06:42:12;;;;;;;14.98;9.60;;;;;;;;;;5098645;28;20462;-66
2023/08/04 06:44:37;;;;;;;11.55;9.57;;;;;;;;;;5106728;28;20042;-67
2023/08/04 06:47:02;;;;;;;11.27;9.07;;;;;;;;;;5106987;28;20020;-66
2023/08/04 06:49:28;;;;;;;13.15;9.77;;;;;;;;;;5108053;28;20355;-66
2023/08/04 06:51:53;;;;;;;12.77;9.55;;;;;;;;;;5094519;28;20430;-66
2023/08/04 06:54:18;;;;;;;11.68;9.00;;;;;;;;;;5093552;28;20012;-66
2023/08/04 06:56:44;;;;;;;19.17;9.23;;;;;;;;;;5112419;28;20088;-66
2023/08/04 06:59:11;;;;;;;13.70;9.38;;;;;;;;;;5104372;28;20036;-67
2023/08/04 07:01:36;;;;;;;16.08;9.90;;;;;;;;;;5104493;28;20064;-66
2023/08/04 07:04:01;;;;;;;14.15;9.93;;;;;;;;;;5094602;28;20416;-66
2023/08/04 07:06:27;;;;;;;16.15;10.57;;;;;;;;;;5102364;28;20042;-66
2023/08/04 07:08:52;;;;;;;12.18;9.35;;;;;;;;;;5108285;28;20073;-66
2023/08/04 07:11:17;;;;;;;15.73;8.80;;;;;;;;;;5100138;28;20027;-66
2023/08/04 07:13:43;;;;;;;11.57;8.32;;;;;;;;;;5107492;28;20050;-66
2023/08/04 07:16:10;;;;;;;16.50;9.07;;;;;;;;;;5105436;28;20016;-67
2023/08/04 07:18:35;;;;;;;14.75;9.15;;;;;;;;;;5110962;28;20032;-67
2023/08/04 07:21:08;;;;;;;14.93;8.40;;;;;;;;;;5112442;28;20030;-66
2023/08/04 07:23:33;;;;;;;13.93;8.55;;;;;;;;;;5096562;28;20406;-66
2023/08/04 07:25:58;;;;;;;10.25;6.68;;;;;;;;;;5112394;28;20034;-66
2023/08/04 07:28:23;;;;;;;12.50;7.32;;;;;;;;;;5110381;28;20088;-66
2023/08/04 07:30:49;;;;;;;7.57;5.88;;;;;;;;;;5113404;28;20037;-66
2023/08/04 07:33:14;;;;;;;10.50;6.07;;;;;;;;;;5111312;28;20034;-66
2023/08/04 07:35:39;;;;;;;9.25;5.50;;;;;;;;;;5111194;28;20277;-66
2023/08/04 07:38:04;;;;;;;8.17;5.23;;;;;;;;;;5106432;28;20038;-66
2023/08/04 07:40:29;;;;;;;9.37;5.60;;;;;;;;;;5111725;28;20301;-66
2023/08/04 07:42:55;;;;;;;8.40;3.83;;;;;;;;;;5070581;28;20273;-66
2023/08/04 07:45:20;;;;;;;9.23;4.57;;;;;;;;;;5064345;28;20273;-66
2023/08/04 07:47:45;;;;;;;7.80;5.18;;;;;;;;;;5103023;28;20278;-67
2023/08/04 07:50:11;;;;;;;8.38;4.25;;;;;;;;;;5093720;28;20104;-65
2023/08/04 07:52:36;;;;;;;10.38;4.57;;;;;;;;;;5100175;28;20028;-66
2023/08/04 07:55:01;;;;;;;5.70;4.13;;;;;;;;;;5102620;28;20024;-66
2023/08/04 07:57:26;;;;;;;10.60;4.07;;;;;;;;;;5109638;28;20302;-66
2023/08/04 07:59:51;;;;;;;7.68;4.10;;;;;;;;;;5095175;28;20731;-67
2023/08/04 08:02:17;;;;;;;6.53;4.07;;;;;;;;;;5100980;28;20022;-66
2023/08/04 08:04:42;;;;;;;8.43;4.40;;;;;;;;;;5108774;28;20338;-66
2023/08/04 08:07:07;;;;;;;5.97;3.87;;;;;;;;;;5101589;28;20110;-66
2023/08/04 08:09:32;;;;;;;6.50;4.20;;;;;;;;;;5094874;28;20286;-66
2023/08/04 08:11:59;;;;;;;9.80;4.13;;;;;;;;;;5105919;28;20273;-67
2023/08/04 08:14:24;;;;;;;7.05;3.72;;;;;;;;;;5113174;28;20439;-66
2023/08/04 08:16:49;;;;;;;8.07;3.88;;;;;;;;;;5110686;28;20431;-67
2023/08/04 08:19:14;;;;;;;15.53;3.80;;;;;;;;;;5112897;28;20023;-66
2023/08/04 08:21:41;;;;;;;5.88;3.47;;;;;;;;;;5111920;28;20288;-65
2023/08/04 08:24:06;;;;;;;6.30;3.50;;;;;;;;;;5111708;28;20064;-69
2023/08/04 08:26:32;;;;;;;5.13;3.33;;;;;;;;;;5110631;28;20102;-69
2023/08/04 08:28:57;;;;;;;4.18;2.78;;;;;;;;;;5110453;28;20027;-68
2023/08/04 08:31:22;;;;;;;5.38;3.22;;;;;;;;;;5107064;28;20028;-67
2023/08/04 08:33:47;;;;;;;5.72;3.33;;;;;;;;;;5099957;28;20020;-67
2023/08/04 08:36:13;;;;;;;4.35;2.63;;;;;;;;;;5103488;28;20016;-67
2023/08/04 08:38:38;;;;;;;6.15;2.88;;;;;;;;;;5108286;28;20101;-68
2023/08/04 08:41:03;;;;;;;3.73;2.53;;;;;;;;;;5111394;28;20031;-67
2023/08/04 08:43:28;;;;;;;5.70;2.95;;;;;;;;;;5098238;28;20280;-68
2023/08/04 08:45:55;;;;;;;3.97;2.50;;;;;;;;;;5111088;28;20555;-67
2023/08/04 08:48:20;;;;;;;7.43;3.10;;;;;;;;;;5111445;28;20050;-68
2023/08/04 08:50:48;;;;;;;6.72;3.53;;;;;;;;;;5112123;28;20385;-66
2023/08/04 08:53:14;;;;;;;4.70;2.85;;;;;;;;;;5100766;28;20130;-67
2023/08/04 08:55:42;;;;;;;4.30;3.20;;;;;;;;;;5092391;28;20055;-67
2023/08/04 08:58:08;;;;;;;6.13;2.38;;;;;;;;;;5104890;28;20031;-67
2023/08/04 09:00:34;;;;;;;5.18;3.35;;;;;;;;;;5101432;28;20107;-67
2023/08/04 09:03:00;;;;;;;5.22;2.85;;;;;;;;;;5095604;28;20035;-67
2023/08/04 09:05:25;;;;;;;5.35;2.30;;;;;;;;;;5110472;28;20027;-66
2023/08/04 09:07:50;;;;;;;4.00;2.13;;;;;;;;;;5102991;28;20493;-67
2023/08/04 09:10:16;;;;;;;6.23;2.40;;;;;;;;;;5098319;28;20088;-67
2023/08/04 09:12:44;;;;;;;5.00;2.60;;;;;;;;;;5097779;28;20293;-67
2023/08/04 09:15:10;;;;;;;5.55;2.95;;;;;;;;;;5097737;28;20475;-67
2023/08/04 09:17:36;;;;;;;3.45;2.55;;;;;;;;;;5098587;28;20084;-67
2023/08/04 09:20:02;;;;;;;4.72;2.58;;;;;;;;;;5098386;28;20031;-67
2023/08/04 09:22:28;;;;;;;4.45;2.47;;;;;;;;;;5111520;28;20069;-66
2023/08/04 09:25:00;;;;;;;4.53;2.90;;;;;;;;;;5098686;28;20024;-67
2023/08/04 09:27:29;;;;;;;3.78;2.60;;;;;;;;;;5096178;28;20027;-67
2023/08/04 09:30:01;;;;;;;4.13;2.63;;;;;;;;;;5096829;28;20172;-67
2023/08/04 09:32:27;;;;;;;4.72;2.60;;;;;;;;;;5101073;28;20030;-66
2023/08/04 09:35:02;;;;;;;4.78;2.13;;;;;;;;;;5096077;28;20440;-66
2023/08/04 09:37:29;;;;;;;3.25;2.25;;;;;;;;;;5091437;28;20424;-66
2023/08/04 09:39:55;;;;;;;3.85;2.20;;;;;;;;;;5091519;28;20039;-66
2023/08/04 09:42:21;;;;;;;3.63;1.98;;;;;;;;;;5094855;28;20026;-67
2023/08/04 09:44:53;;;;;;;3.35;1.90;;;;;;;;;;5101671;28;20051;-67
2023/08/04 09:47:25;;;;;;;4.28;1.80;;;;;;;;;;5092649;28;20031;-67
2023/08/04 09:49:50;;;;;;;3.40;1.75;;;;;;;;;;5100272;28;20052;-67
2023/08/04 09:52:18;;;;;;;3.67;2.10;;;;;;;;;;5092071;28;20044;-67
2023/08/04 09:54:43;;;;;;;3.40;1.90;;;;;;;;;;5099635;28;20094;-67
2023/08/04 09:57:08;;;;;;;3.23;2.13;;;;;;;;;;5097227;28;20039;-67
2023/08/04 09:59:34;;;;;;;3.27;1.80;;;;;;;;;;5099335;28;20286;-67
2023/08/04 10:01:59;;;;;;;4.45;2.50;;;;;;;;;;5109836;28;20654;-67
2023/08/04 10:04:25;;;;;;;4.18;2.45;;;;;;;;;;5105700;28;20063;-67
2023/08/04 10:06:50;;;;;;;4.25;2.00;;;;;;;;;;5111147;28;20027;-67
2023/08/04 10:09:15;;;;;;;3.10;1.70;;;;;;;;;;5107154;28;20024;-67
2023/08/04 10:11:41;;;;;;;2.70;1.50;;;;;;;;;;5106498;28;20089;-67
2023/08/04 10:14:07;;;;;;;3.88;1.52;;;;;;;;;;5097277;28;20799;-66
2023/08/04 10:16:34;;;;;;;3.53;1.75;;;;;;;;;;5088557;28;20076;-66
2023/08/04 10:19:06;;;;;;;2.78;1.58;;;;;;;;;;5104052;28;20050;-66
2023/08/04 10:21:36;;;;;;;2.67;1.50;;;;;;;;;;5112671;28;20034;-67
2023/08/04 10:24:04;;;;;;;3.63;2.00;;;;;;;;;;5100604;28;20095;-66
2023/08/04 10:26:50;;;;;;;3.53;1.60;;;;;;;;;;5102392;28;20028;-66
2023/08/04 10:29:18;;;;;;;3.42;1.98;;;;;;;;;;5101049;28;20035;-66
2023/08/04 10:31:54;;;;;;;2.95;1.80;;;;;;;;;;5110685;28;20020;-67
2023/08/04 10:34:29;;;;;;;4.72;2.10;;;;;;;;;;5109814;28;20028;-66
2023/08/04 10:37:00;;;;;;;2.50;1.27;;;;;;;;;;5094661;28;20036;-66
2023/08/04 10:39:27;;;;;;;6.50;1.73;;;;;;;;;;5100669;28;20051;-67
2023/08/04 10:41:52;;;;;;;2.70;1.17;;;;;;;;;;5067455;28;20062;-66
2023/08/04 10:44:18;;;;;;;3.43;1.77;;;;;;;;;;5054492;28;20020;-67
2023/08/04 10:46:43;;;;;;;2.83;1.30;;;;;;;;;;5054617;28;20276;-67
2023/08/04 10:49:08;;;;;;;2.78;1.63;;;;;;;;;;5088709;28;20281;-67
2023/08/04 10:51:34;;;;;;;1.55;0.95;;;;;;;;;;5110486;28;20036;-67
2023/08/04 10:54:00;;;;;;;2.20;1.23;;;;;;;;;;5107748;28;20050;-67
2023/08/04 10:56:25;;;;;;;9.43;1.73;;;;;;;;;;5102168;28;20116;-67
2023/08/04 10:58:50;;;;;;;2.80;1.50;;;;;;;;;;5100199;28;20085;-67
2023/08/04 11:01:16;;;;;;;7.03;1.80;;;;;;;;;;5109887;28;20339;-67
2023/08/04 11:03:46;;;;;;;4.15;1.55;;;;;;;;;;5108158;28;20107;-67
2023/08/04 11:06:12;;;;;;;3.40;1.50;;;;;;;;;;5111346;28;20024;-66
2023/08/04 11:08:37;;;;;;;2.83;1.50;;;;;;;;;;5110237;28;20535;-66
2023/08/04 11:11:02;;;;;;;2.92;1.70;;;;;;;;;;5099819;28;20374;-66
2023/08/04 11:13:27;;;;;;;2.80;1.70;;;;;;;;;;5107406;28;20128;-66
2023/08/04 11:15:53;;;;;;;3.05;1.83;;;;;;;;;;5108472;28;20280;-66
2023/08/04 11:18:27;;;;;;;3.30;1.80;;;;;;;;;;5105576;28;20039;-67
2023/08/04 11:20:52;;;;;;;5.90;2.05;;;;;;;;;;5103283;28;20059;-67
2023/08/04 11:23:28;;;;;;;3.42;1.70;;;;;;;;;;5101966;28;20514;-68
2023/08/04 11:25:53;;;;;;;2.63;1.50;;;;;;;;;;5097148;28;20027;-67
2023/08/04 11:28:20;;;;;;;3.15;1.73;;;;;;;;;;5109415;28;20027;-67
2023/08/04 11:30:45;;;;;;;2.53;1.10;;;;;;;;;;5101489;28;20389;-66
2023/08/04 11:33:10;;;;;;;4.55;1.52;;;;;;;;;;5097125;28;20028;-66
2023/08/04 11:35:35;;;;;;;2.42;1.63;;;;;;;;;;5058345;28;20051;-68
2023/08/04 11:38:01;;;;;;;3.07;2.00;;;;;;;;;;5085966;28;20025;-66
2023/08/04 11:40:26;;;;;;;3.30;1.95;;;;;;;;;;5050197;28;21192;-66
2023/08/04 11:42:52;;;;;;;2.90;2.15;;;;;;;;;;5084285;28;20390;-67
2023/08/04 11:45:17;;;;;;;4.13;2.45;;;;;;;;;;5113148;28;20106;-66
2023/08/04 11:47:43;;;;;;;6.07;2.75;;;;;;;;;;5109520;28;20027;-66
2023/08/04 11:50:08;;;;;;;4.25;2.33;;;;;;;;;;5091530;28;20050;-67
2023/08/04 11:52:37;;;;;;;3.22;2.03;;;;;;;;;;5110869;28;20054;-66
2023/08/04 11:55:04;;;;;;;2.40;1.65;;;;;;;;;;5092426;28;20047;-67
2023/08/04 11:57:29;;;;;;;2.63;1.38;;;;;;;;;;5048978;28;20085;-67
2023/08/04 11:59:54;;;;;;;4.68;1.52;;;;;;;;;;5052801;28;20035;-67
2023/08/04 12:02:20;;;;;;;2.13;1.10;;;;;;;;;;5051753;28;20956;-67
2023/08/04 12:04:45;;;;;;;2.75;1.35;;;;;;;;;;5049466;28;20031;-66
2023/08/04 12:07:10;;;;;;;2.30;1.23;;;;;;;;;;5054850;28;20139;-67
2023/08/04 12:09:36;;;;;;;2.45;1.08;;;;;;;;;;5076581;28;20285;-67
2023/08/04 12:12:02;;;;;;;2.65;1.55;;;;;;;;;;5106290;28;20028;-68
2023/08/04 12:14:28;;;;;;;2.20;1.35;;;;;;;;;;5099894;28;20420;-67
2023/08/04 12:16:58;;;;;;;3.00;1.60;;;;;;;;;;5112047;28;20032;-67
2023/08/04 12:19:24;;;;;;;2.80;1.80;;;;;;;;;;5104698;28;20036;-67
2023/08/04 12:21:51;;;;;;;3.78;1.92;;;;;;;;;;5107456;28;20051;-67
2023/08/04 12:24:16;;;;;;;3.80;1.92;;;;;;;;;;5100929;28;20419;-67
2023/08/04 12:26:44;;;;;;;4.57;2.10;;;;;;;;;;5112486;28;20105;-66
2023/08/04 12:29:10;;;;;;;3.97;1.92;;;;;;;;;;5101031;28;20103;-66
2023/08/04 12:31:36;;;;;;;4.40;2.28;;;;;;;;;;5105677;28;20074;-67
2023/08/04 12:34:01;;;;;;;2.85;1.80;;;;;;;;;;5106017;28;20488;-67
2023/08/04 12:36:26;;;;;;;3.95;1.70;;;;;;;;;;5098773;28;20626;-66
2023/08/04 12:38:52;;;;;;;3.58;1.30;;;;;;;;;;5100367;28;20378;-67
2023/08/04 12:41:17;;;;;;;1.83;1.00;;;;;;;;;;5097660;28;20036;-65
2023/08/04 12:43:42;;;;;;;1.97;0.97;;;;;;;;;;5107160;28;20273;-67
2023/08/04 12:46:07;;;;;;;2.53;1.20;;;;;;;;;;5107233;28;20740;-67
2023/08/04 12:48:33;;;;;;;2.70;1.00;;;;;;;;;;5103031;28;20459;-67
2023/08/04 12:50:58;;;;;;;2.17;1.13;;;;;;;;;;5107690;28;20281;-65
2023/08/04 12:53:23;;;;;;;2.92;1.33;;;;;;;;;;5100947;28;20290;-66
2023/08/04 12:55:48;;;;;;;2.63;1.47;;;;;;;;;;5103520;28;20019;-65
2023/08/04 12:58:14;;;;;;;3.13;1.45;;;;;;;;;;5103188;28;20030;-65
2023/08/04 13:00:40;;;;;;;5.28;1.83;;;;;;;;;;5101287;28;20020;-65
2023/08/04 13:03:05;;;;;;;4.00;2.40;;;;;;;;;;5086858;28;20051;-66
2023/08/04 13:05:31;;;;;;;5.68;2.20;;;;;;;;;;5098186;28;20103;-66
2023/08/04 13:07:56;;;;;;;6.63;2.53;;;;;;;;;;5106521;28;20027;-66
2023/08/04 13:10:22;;;;;;;5.95;2.13;;;;;;;;;;5101676;28;20356;-66
2023/08/04 13:12:47;;;;;;;3.28;2.00;;;;;;;;;;5097340;28;20024;-66
2023/08/04 13:15:12;;;;;;;3.85;2.42;;;;;;;;;;5110537;28;20050;-66
2023/08/04 13:17:37;;;;;;;4.30;2.25;;;;;;;;;;5096671;28;20089;-66
2023/08/04 13:20:05;;;;;;;3.75;2.10;;;;;;;;;;5089579;28;20058;-66
2023/08/04 13:22:30;;;;;;;4.13;2.75;;;;;;;;;;5049383;28;20947;-72
2023/08/04 13:24:55;;;;;;;5.50;3.37;;;;;;;;;;5055548;28;20036;-65
2023/08/04 13:27:20;;;;;;;4.40;3.25;;;;;;;;;;5058357;28;21170;-65
2023/08/04 13:29:47;;;;;;;4.47;3.80;;;;;;;;;;5050655;28;20020;-65
2023/08/04 13:32:13;;;;;;;6.53;4.90;;;;;;;;;;5053240;28;20273;-64
2023/08/04 13:34:38;;;;;;;8.10;5.70;;;;;;;;;;5055476;28;20929;-63
2023/08/04 13:37:03;;;;;;;7.75;5.97;;;;;;;;;;5051721;28;20188;-66
2023/08/04 13:39:29;;;;;;;9.07;7.30;;;;;;;;;;5054958;28;20028;-66
2023/08/04 13:41:54;;;;;;;9.27;7.27;;;;;;;;;;5103092;28;20269;-64
2023/08/04 13:44:19;;;;;;;8.73;4.50;;;;;;;;;;5105291;28;20315;-65
2023/08/04 13:46:44;;;;;;;6.60;5.18;;;;;;;;;;5104432;28;20024;-65
2023/08/04 13:49:10;;;;;;;5.43;4.63;;;;;;;;;;5104074;28;20035;-64
2023/08/04 13:51:35;;;;;;;9.07;4.03;;;;;;;;;;5107893;28;20273;-63
2023/08/04 13:54:00;;;;;;;8.83;2.83;;;;;;;;;;5103074;28;20277;-62
2023/08/04 13:56:26;;;;;;;4.88;3.40;;;;;;;;;;5102797;28;20414;-63
2023/08/04 13:58:51;;;;;;;3.78;2.42;;;;;;;;;;5108412;28;20036;-65
2023/08/04 14:01:16;;;;;;;4.53;2.43;;;;;;;;;;5093219;28;20031;-63
2023/08/04 14:03:42;;;;;;;4.05;2.25;;;;;;;;;;5109526;28;20764;-65
2023/08/04 14:06:07;;;;;;;5.65;3.80;;;;;;;;;;5105564;28;20031;-64
2023/08/04 14:08:32;;;;;;;4.65;3.70;;;;;;;;;;5104321;28;20031;-64
2023/08/04 14:10:57;;;;;;;3.75;2.42;;;;;;;;;;5103367;28;20107;-64
2023/08/04 14:13:23;;;;;;;3.50;2.20;;;;;;;;;;5090324;28;20043;-64
2023/08/04 14:15:48;;;;;;;4.57;2.22;;;;;;;;;;5105927;28;20308;-66
2023/08/04 14:18:14;;;;;;;3.90;2.20;;;;;;;;;;5098545;28;20528;-64
2023/08/04 14:20:39;;;;;;;2.92;1.85;;;;;;;;;;5103831;28;20269;-64
2023/08/04 14:23:04;;;;;;;3.42;1.75;;;;;;;;;;5099594;28;20720;-64
2023/08/04 14:25:30;;;;;;;4.30;1.60;;;;;;;;;;5098595;28;20023;-65